createdAt,value
2019-04-03T00:01:29.344Z,8.77
2019-04-03T00:03:05.841Z,6.03
2019-04-03T00:04:42.243Z,5.53
2019-04-03T00:06:31.078Z,9.77
2019-04-03T00:08:07.320Z,8.13
2019-04-03T00:09:44.782Z,10.10
2019-04-03T00:11:21.109Z,11.10
2019-04-03T00:12:57.361Z,8.83
2019-04-03T00:14:33.521Z,10.17
2019-04-03T00:16:09.757Z,9.40
2019-04-03T00:17:46.274Z,8.60
2019-04-03T00:19:22.636Z,9.93
2019-04-03T00:20:58.871Z,6.10
2019-04-03T00:22:35.513Z,10.33
2019-04-03T00:24:11.862Z,8.87
2019-04-03T00:25:48.253Z,8.20
2019-04-03T00:27:24.429Z,10.30
2019-04-03T00:29:00.814Z,8.73
2019-04-03T00:30:37.259Z,7.60
2019-04-03T00:32:13.670Z,6.53
2019-04-03T00:33:49.889Z,9.50
2019-04-03T00:35:26.184Z,8.47
2019-04-03T00:37:02.262Z,9.77
2019-04-03T00:38:38.523Z,10.80
2019-04-03T00:40:15.331Z,13.20
2019-04-03T00:41:52.947Z,10.20
2019-04-03T00:43:29.414Z,12.87
2019-04-03T00:45:07.421Z,10.37
2019-04-03T00:46:43.679Z,7.17
2019-04-03T00:48:20.006Z,5.03
2019-04-03T00:49:57.079Z,8.60
2019-04-03T00:51:33.786Z,8.67
2019-04-03T00:53:09.988Z,8.77
2019-04-03T00:54:47.366Z,6.80
2019-04-03T00:56:24.799Z,7.13
2019-04-03T00:58:01.552Z,10.10
2019-04-03T00:59:37.948Z,9.53
2019-04-03T01:01:14.327Z,9.87
2019-04-03T01:02:50.492Z,11.40
2019-04-03T01:04:28.216Z,11.20
2019-04-03T01:06:05.102Z,9.27
2019-04-03T01:07:41.329Z,11.03
2019-04-03T01:09:17.674Z,10.77
2019-04-03T01:10:53.922Z,10.80
2019-04-03T01:12:31.266Z,9.07
2019-04-03T01:14:07.555Z,12.73
2019-04-03T01:15:43.789Z,12.70
2019-04-03T01:17:20.110Z,10.17
2019-04-03T01:18:56.483Z,11.23
2019-04-03T01:20:32.639Z,8.83
2019-04-03T01:22:08.874Z,10.40
2019-04-03T01:23:45.106Z,12.50
2019-04-03T01:25:21.374Z,11.97
2019-04-03T01:26:57.777Z,6.40
2019-04-03T01:28:35.265Z,9.33
2019-04-03T01:30:12.122Z,9.93
2019-04-03T01:31:49.722Z,9.63
2019-04-03T01:33:26.034Z,8.53
2019-04-03T01:35:02.197Z,11.70
2019-04-03T01:36:38.388Z,10.70
2019-04-03T01:38:14.617Z,11.83
2019-04-03T01:39:51.296Z,11.47
2019-04-03T01:41:27.657Z,7.43
2019-04-03T01:43:05.078Z,8.77
2019-04-03T01:44:41.272Z,7.63
2019-04-03T01:46:17.509Z,12.10
2019-04-03T01:47:57.431Z,10.50
2019-04-03T01:49:32.806Z,12.67
2019-04-03T01:51:09.002Z,9.80
2019-04-03T01:52:45.361Z,7.77
2019-04-03T01:54:21.626Z,11.13
2019-04-03T01:55:57.894Z,10.97
2019-04-03T01:57:36.655Z,10.50
2019-04-03T01:59:13.285Z,10.50
2019-04-03T02:00:49.523Z,10.53
2019-04-03T02:02:25.846Z,7.73
2019-04-03T02:04:02.151Z,11.97
2019-04-03T02:05:38.465Z,12.17
2019-04-03T02:07:15.154Z,13.03
2019-04-03T02:08:51.450Z,10.93
2019-04-03T02:10:29.223Z,10.87
2019-04-03T02:12:05.631Z,10.97
2019-04-03T02:13:41.973Z,12.13
2019-04-03T02:15:21.209Z,8.63
2019-04-03T02:16:56.411Z,11.43
2019-04-03T02:18:32.813Z,11.23
2019-04-03T02:20:09.414Z,11.13
2019-04-03T02:21:45.679Z,10.97
2019-04-03T02:23:21.971Z,10.97
2019-04-03T02:24:58.258Z,11.63
2019-04-03T02:26:35.995Z,11.63
2019-04-03T02:28:12.219Z,9.50
2019-04-03T02:29:48.385Z,10.97
2019-04-03T02:31:24.718Z,9.53
2019-04-03T02:33:01.099Z,9.73
2019-04-03T02:34:37.482Z,7.80
2019-04-03T02:36:13.902Z,9.53
2019-04-03T02:37:50.841Z,7.43
2019-04-03T02:39:27.720Z,8.73
2019-04-03T02:41:05.205Z,9.30
2019-04-03T02:42:42.464Z,6.27
2019-04-03T02:44:20.043Z,7.13
2019-04-03T02:45:57.279Z,8.50
2019-04-03T02:47:34.712Z,9.90
2019-04-03T02:49:11.189Z,9.87
2019-04-03T02:50:48.470Z,9.30
2019-04-03T02:52:26.600Z,12.40
2019-04-03T02:54:03.232Z,11.43
2019-04-03T02:55:40.991Z,9.77
2019-04-03T02:57:18.175Z,8.57
2019-04-03T02:58:55.164Z,10.10
2019-04-03T03:00:33.606Z,10.17
2019-04-03T03:02:12.504Z,12.70
2019-04-03T03:03:49.808Z,10.07
2019-04-03T03:05:28.166Z,10.57
2019-04-03T03:07:05.825Z,11.57
2019-04-03T03:08:43.219Z,7.13
2019-04-03T03:10:20.361Z,11.60
2019-04-03T03:11:57.426Z,11.87
2019-04-03T03:13:35.563Z,5.67
2019-04-03T03:15:12.742Z,11.40
2019-04-03T03:16:50.843Z,8.53
2019-04-03T03:18:28.353Z,10.27
2019-04-03T03:20:08.101Z,9.23
2019-04-03T03:21:45.645Z,8.80
2019-04-03T03:23:24.083Z,8.73
2019-04-03T03:25:01.325Z,7.77
2019-04-03T03:26:38.817Z,11.53
2019-04-03T03:28:17.198Z,9.37
2019-04-03T03:29:53.737Z,9.57
2019-04-03T03:31:59.627Z,9.83
2019-04-03T03:33:28.772Z,10.17
2019-04-03T03:34:57.116Z,11.97
2019-04-03T03:36:28.358Z,8.73
2019-04-03T03:38:07.091Z,9.17
2019-04-03T03:39:44.542Z,9.17
2019-04-03T03:41:22.906Z,9.37
2019-04-03T03:43:03.767Z,7.80
2019-04-03T03:44:43.347Z,9.37
2019-04-03T03:46:17.155Z,10.60
2019-04-03T03:47:54.860Z,6.50
2019-04-03T03:49:31.888Z,7.93
2019-04-03T03:51:08.803Z,10.40
2019-04-03T03:52:46.659Z,10.50
2019-04-03T03:54:24.060Z,11.00
2019-04-03T03:56:02.192Z,5.90
2019-04-03T03:57:41.855Z,9.23
2019-04-03T03:59:18.969Z,6.07
2019-04-03T04:00:59.388Z,10.30
2019-04-03T04:02:36.745Z,8.73
2019-04-03T04:04:15.269Z,11.00
2019-04-03T04:05:54.687Z,9.50
2019-04-03T04:07:30.787Z,11.30
2019-04-03T04:09:09.320Z,11.33
2019-04-03T04:10:45.981Z,6.87
2019-04-03T04:12:22.440Z,9.03
2019-04-03T04:13:58.840Z,11.23
2019-04-03T04:15:36.170Z,10.30
2019-04-03T04:17:17.093Z,12.23
2019-04-03T04:18:55.935Z,8.70
2019-04-03T04:20:30.125Z,10.10
2019-04-03T04:22:06.679Z,9.60
2019-04-03T04:23:43.290Z,10.90
2019-04-03T04:25:19.604Z,7.23
2019-04-03T04:26:56.577Z,9.77
2019-04-03T04:28:32.966Z,8.10
2019-04-03T04:30:11.971Z,9.53
2019-04-03T04:31:47.967Z,10.10
2019-04-03T04:33:24.280Z,9.40
2019-04-03T04:35:01.639Z,8.77
2019-04-03T04:36:37.873Z,9.30
2019-04-03T04:38:14.169Z,10.93
2019-04-03T04:39:50.499Z,10.73
2019-04-03T04:41:28.150Z,8.60
2019-04-03T04:43:07.442Z,8.30
2019-04-03T04:44:42.513Z,7.93
2019-04-03T04:46:18.736Z,9.47
2019-04-03T04:47:54.904Z,10.47
2019-04-03T04:49:31.076Z,9.60
2019-04-03T04:51:07.343Z,7.43
2019-04-03T04:52:43.538Z,9.37
2019-04-03T04:54:19.787Z,9.00
2019-04-03T04:55:55.978Z,10.83
2019-04-03T04:57:32.376Z,9.73
2019-04-03T04:59:08.527Z,10.27
2019-04-03T05:00:47.047Z,7.27
2019-04-03T05:02:22.846Z,10.63
2019-04-03T05:03:59.370Z,11.23
2019-04-03T05:05:35.937Z,9.67
2019-04-03T05:07:12.159Z,7.57
2019-04-03T05:08:48.423Z,7.43
2019-04-03T05:10:24.584Z,11.00
2019-04-03T05:12:00.898Z,10.73
2019-04-03T05:13:37.218Z,11.77
2019-04-03T05:15:13.524Z,10.87
2019-04-03T05:16:50.167Z,8.47
2019-04-03T05:18:28.519Z,8.67
2019-04-03T05:20:05.309Z,9.47
2019-04-03T05:21:42.770Z,12.43
2019-04-03T05:23:19.063Z,11.60
2019-04-03T05:24:55.393Z,9.73
2019-04-03T05:26:32.266Z,8.10
2019-04-03T05:28:09.012Z,11.70
2019-04-03T05:29:45.236Z,10.07
2019-04-03T05:31:21.465Z,7.47
2019-04-03T05:32:57.991Z,8.77
2019-04-03T05:34:34.214Z,10.37
2019-04-03T05:36:10.508Z,9.57
2019-04-03T05:37:46.858Z,9.73
2019-04-03T05:39:23.938Z,10.43
2019-04-03T05:41:00.634Z,9.97
2019-04-03T05:42:36.828Z,8.37
2019-04-03T05:44:13.276Z,9.83
2019-04-03T05:45:49.408Z,8.70
2019-04-03T05:47:38.924Z,7.60
2019-04-03T05:49:18.497Z,7.47
2019-04-03T05:50:54.195Z,8.67
2019-04-03T05:52:30.951Z,7.50
2019-04-03T05:54:07.753Z,8.00
2019-04-03T05:55:45.049Z,9.67
2019-04-03T05:57:21.530Z,10.37
2019-04-03T05:59:01.393Z,14.40
2019-04-03T06:00:37.706Z,8.83
2019-04-03T06:02:16.586Z,12.10
2019-04-03T06:03:51.405Z,10.17
2019-04-03T06:05:27.878Z,9.70
2019-04-03T06:07:04.109Z,9.77
2019-04-03T06:08:40.359Z,12.33
2019-04-03T06:10:16.587Z,9.20
2019-04-03T06:11:52.981Z,9.20
2019-04-03T06:13:29.139Z,8.63
2019-04-03T06:15:09.817Z,8.60
2019-04-03T06:16:46.134Z,9.67
2019-04-03T06:18:25.707Z,14.03
2019-04-03T06:20:01.561Z,10.83
2019-04-03T06:21:37.819Z,8.53
2019-04-03T06:23:13.977Z,13.77
2019-04-03T06:24:50.139Z,6.53
2019-04-03T06:26:26.383Z,10.13
2019-04-03T06:28:02.640Z,10.23
2019-04-03T06:29:39.250Z,6.07
2019-04-03T06:31:15.611Z,8.13
2019-04-03T06:32:54.384Z,11.83
2019-04-03T06:34:30.889Z,9.57
2019-04-03T06:36:08.588Z,9.40
2019-04-03T06:37:44.940Z,7.93
2019-04-03T06:39:22.878Z,7.37
2019-04-03T06:41:00.165Z,10.37
2019-04-03T06:42:36.504Z,13.30
2019-04-03T06:44:12.447Z,6.80
2019-04-03T06:45:48.714Z,9.80
2019-04-03T06:47:25.017Z,10.40
2019-04-03T06:49:01.499Z,11.63
2019-04-03T06:50:38.394Z,10.03
2019-04-03T06:52:14.676Z,11.13
2019-04-03T06:53:50.757Z,7.77
2019-04-03T06:55:27.098Z,12.13
2019-04-03T06:57:03.248Z,8.57
2019-04-03T06:58:40.242Z,9.10
2019-04-03T07:00:16.748Z,7.53
2019-04-03T07:01:53.603Z,7.67
2019-04-03T07:03:29.980Z,8.37
2019-04-03T07:05:09.673Z,10.07
2019-04-03T07:06:45.711Z,8.27
2019-04-03T07:08:30.156Z,10.13
2019-04-03T07:10:00.298Z,15.23
2019-04-03T07:11:36.774Z,11.60
2019-04-03T07:13:15.263Z,10.37
2019-04-03T07:14:51.899Z,12.20
2019-04-03T07:16:29.191Z,17.63
2019-04-03T07:18:06.733Z,13.43
2019-04-03T07:19:43.261Z,15.77
2019-04-03T07:21:22.131Z,11.03
2019-04-03T07:22:59.063Z,11.37
2019-04-03T07:24:35.491Z,9.43
2019-04-03T07:26:11.926Z,14.23
2019-04-03T07:27:48.290Z,13.30
2019-04-03T07:29:26.077Z,16.03
2019-04-03T07:31:02.617Z,6.87
2019-04-03T07:32:38.983Z,8.03
2019-04-03T07:34:15.344Z,12.67
2019-04-03T07:35:51.598Z,8.37
2019-04-03T07:37:27.865Z,10.97
2019-04-03T07:39:05.774Z,8.63
2019-04-03T07:40:42.079Z,10.60
2019-04-03T07:42:18.584Z,9.30
2019-04-03T07:43:54.447Z,11.97
2019-04-03T07:45:32.771Z,11.67
2019-04-03T07:47:08.820Z,10.33
2019-04-03T07:48:46.852Z,6.07
2019-04-03T07:50:23.393Z,12.50
2019-04-03T07:51:59.643Z,10.50
2019-04-03T07:53:36.061Z,7.87
2019-04-03T07:55:12.420Z,9.30
2019-04-03T07:56:48.579Z,9.77
2019-04-03T07:58:25.709Z,8.07
2019-04-03T08:00:02.195Z,8.73
2019-04-03T08:01:38.799Z,11.00
2019-04-03T08:03:16.475Z,6.93
2019-04-03T08:04:55.705Z,9.60
2019-04-03T08:06:30.811Z,11.33
2019-04-03T08:08:07.137Z,10.67
2019-04-03T08:09:43.247Z,11.20
2019-04-03T08:11:19.552Z,9.93
2019-04-03T08:12:56.361Z,9.37
2019-04-03T08:14:32.557Z,10.83
2019-04-03T08:16:08.964Z,7.10
2019-04-03T08:17:45.194Z,7.03
2019-04-03T08:19:23.191Z,9.53
2019-04-03T08:21:01.803Z,10.77
2019-04-03T08:22:38.538Z,9.47
2019-04-03T08:24:14.878Z,9.13
2019-04-03T08:25:53.994Z,10.77
2019-04-03T08:27:30.291Z,11.13
2019-04-03T08:29:06.901Z,11.43
2019-04-03T08:30:43.526Z,7.97
2019-04-03T08:32:19.838Z,8.03
2019-04-03T08:33:57.121Z,9.87
2019-04-03T08:35:35.479Z,11.13
2019-04-03T08:37:11.926Z,6.17
2019-04-03T08:38:48.116Z,10.83
2019-04-03T08:40:24.420Z,10.17
2019-04-03T08:42:00.650Z,9.17
2019-04-03T08:43:37.045Z,7.97
2019-04-03T08:45:15.058Z,10.00
2019-04-03T08:46:51.324Z,8.53
2019-04-03T08:48:27.496Z,12.13
2019-04-03T08:50:05.102Z,8.53
2019-04-03T08:51:41.403Z,11.50
2019-04-03T08:53:17.855Z,11.57
2019-04-03T08:54:54.146Z,9.67
2019-04-03T08:56:30.602Z,10.40
2019-04-03T08:58:08.015Z,10.43
2019-04-03T08:59:44.324Z,7.47
2019-04-03T09:01:20.702Z,10.77
2019-04-03T09:02:57.045Z,12.03
2019-04-03T09:04:33.280Z,11.80
2019-04-03T09:06:09.545Z,11.63
2019-04-03T09:07:45.882Z,11.13
2019-04-03T09:09:22.199Z,9.90
2019-04-03T09:11:10.809Z,9.57
2019-04-03T09:12:47.132Z,9.37
2019-04-03T09:14:25.363Z,10.23
2019-04-03T09:16:01.688Z,11.43
2019-04-03T09:17:38.396Z,6.60
2019-04-03T09:19:16.813Z,10.47
2019-04-03T09:20:52.640Z,9.77
2019-04-03T09:22:28.772Z,11.67
2019-04-03T09:24:05.176Z,7.37
2019-04-03T09:25:41.591Z,9.00
2019-04-03T09:27:17.859Z,9.87
2019-04-03T09:28:53.836Z,11.60
2019-04-03T09:30:30.478Z,9.07
2019-04-03T09:32:06.919Z,11.60
2019-04-03T09:33:43.157Z,8.13
2019-04-03T09:35:19.484Z,11.60
2019-04-03T09:36:55.644Z,7.83
2019-04-03T09:38:31.937Z,10.00
2019-04-03T09:40:08.724Z,7.83
2019-04-03T09:41:44.962Z,10.50
2019-04-03T09:43:22.239Z,9.63
2019-04-03T09:44:59.311Z,6.80
2019-04-03T09:46:35.632Z,10.93
2019-04-03T09:48:12.786Z,10.47
2019-04-03T09:49:50.923Z,8.30
2019-04-03T09:51:27.159Z,8.80
2019-04-03T09:53:03.102Z,10.33
2019-04-03T09:54:39.404Z,9.43
2019-04-03T09:56:15.547Z,10.60
2019-04-03T09:57:53.416Z,8.57
2019-04-03T09:59:29.681Z,10.77
2019-04-03T10:01:06.205Z,7.87
2019-04-03T10:02:43.795Z,9.70
2019-04-03T10:04:21.394Z,12.00
2019-04-03T10:05:59.805Z,8.53
2019-04-03T10:07:36.997Z,8.10
2019-04-03T10:09:13.426Z,11.00
2019-04-03T10:10:49.665Z,5.33
2019-04-03T10:12:25.839Z,9.77
2019-04-03T10:14:04.378Z,8.67
2019-04-03T10:15:40.620Z,11.13
2019-04-03T10:17:16.796Z,9.07
2019-04-03T10:18:53.125Z,10.20
2019-04-03T10:20:29.680Z,6.13
2019-04-03T10:22:06.175Z,9.97
2019-04-03T10:23:42.485Z,10.23
2019-04-03T10:25:19.376Z,11.20
2019-04-03T10:26:56.692Z,10.17
2019-04-03T10:28:33.251Z,8.80
2019-04-03T10:30:14.284Z,11.60
2019-04-03T10:31:50.684Z,7.73
2019-04-03T10:33:26.915Z,6.07
2019-04-03T10:35:03.407Z,11.33
2019-04-03T10:36:42.044Z,8.50
2019-04-03T10:38:18.222Z,9.27
2019-04-03T10:39:55.375Z,11.87
2019-04-03T10:41:31.638Z,7.07
2019-04-03T10:43:08.129Z,7.53
2019-04-03T10:44:44.564Z,10.90
2019-04-03T10:46:21.105Z,9.67
2019-04-03T10:47:57.345Z,13.13
2019-04-03T10:49:33.802Z,10.43
2019-04-03T10:51:10.264Z,8.53
2019-04-03T10:52:49.078Z,7.73
2019-04-03T10:54:25.455Z,8.40
2019-04-03T10:56:02.162Z,7.07
2019-04-03T10:57:38.796Z,8.90
2019-04-03T10:59:17.955Z,12.07
2019-04-03T11:00:53.217Z,7.63
2019-04-03T11:02:29.811Z,8.80
2019-04-03T11:04:07.697Z,11.27
2019-04-03T11:05:44.016Z,10.90
2019-04-03T11:07:21.442Z,6.67
2019-04-03T11:08:57.895Z,8.03
2019-04-03T11:10:34.284Z,10.03
2019-04-03T11:12:10.707Z,10.80
2019-04-03T11:13:46.952Z,13.77
2019-04-03T11:15:23.549Z,8.33
2019-04-03T11:16:59.831Z,13.83
2019-04-03T11:18:36.075Z,9.37
2019-04-03T11:20:15.292Z,8.87
2019-04-03T11:21:51.847Z,11.70
2019-04-03T11:25:13.874Z,8.33
2019-04-03T11:26:51.765Z,11.13
2019-04-03T11:28:27.304Z,12.10
2019-04-03T11:30:05.093Z,9.37
2019-04-03T11:30:54.598Z,7.27
2019-04-03T11:31:42.838Z,10.47
2019-04-03T11:33:19.602Z,7.67
2019-04-03T11:34:55.913Z,12.00
2019-04-03T11:36:32.628Z,12.33
2019-04-03T11:38:14.136Z,12.80
2019-04-03T11:39:47.045Z,7.83
2019-04-03T11:41:24.435Z,11.13
2019-04-03T11:43:00.941Z,12.47
2019-04-03T11:44:37.244Z,11.60
2019-04-03T11:46:13.874Z,10.03
2019-04-03T11:47:50.343Z,9.17
2019-04-03T11:49:26.797Z,9.77
2019-04-03T11:51:03.063Z,8.37
2019-04-03T11:52:39.372Z,7.93
2019-04-03T11:54:15.636Z,9.47
2019-04-03T11:55:51.987Z,8.87
2019-04-03T11:57:28.618Z,11.00
2019-04-03T11:59:05.441Z,9.50
2019-04-03T12:00:46.422Z,9.43
2019-04-03T12:02:22.931Z,6.83
2019-04-03T12:03:59.429Z,10.43
2019-04-03T12:05:37.220Z,10.60
2019-04-03T12:07:13.594Z,8.13
2019-04-03T12:08:51.315Z,9.13
2019-04-03T12:10:27.628Z,13.63
2019-04-03T12:12:05.524Z,12.57
2019-04-03T12:13:44.413Z,9.10
2019-04-03T12:15:21.697Z,8.10
2019-04-03T12:16:58.468Z,9.87
2019-04-03T12:18:35.050Z,12.90
2019-04-03T12:20:15.120Z,12.20
2019-04-03T12:21:51.273Z,12.23
2019-04-03T12:23:32.336Z,11.30
2019-04-03T12:25:08.829Z,9.70
2019-04-03T12:26:45.192Z,14.67
2019-04-03T12:28:21.790Z,10.83
2019-04-03T12:29:58.471Z,11.10
2019-04-03T12:31:36.136Z,11.03
2019-04-03T12:33:12.336Z,11.07
2019-04-03T12:34:49.270Z,11.30
2019-04-03T12:36:27.534Z,10.37
2019-04-03T12:38:04.663Z,11.43
2019-04-03T12:39:41.166Z,10.33
2019-04-03T12:41:18.825Z,8.17
2019-04-03T12:42:55.431Z,11.00
2019-04-03T12:44:31.995Z,11.30
2019-04-03T12:46:08.393Z,10.17
2019-04-03T12:47:45.737Z,10.53
2019-04-03T12:49:22.836Z,8.10
2019-04-03T12:51:00.297Z,10.60
2019-04-03T12:52:36.800Z,9.00
2019-04-03T12:54:14.097Z,9.93
2019-04-03T12:55:50.486Z,10.60
2019-04-03T12:57:26.824Z,10.03
2019-04-03T12:59:03.274Z,10.97
2019-04-03T13:00:39.720Z,9.80
2019-04-03T13:02:16.031Z,9.87
2019-04-03T13:03:52.889Z,7.73
2019-04-03T13:05:30.659Z,9.07
2019-04-03T13:07:07.406Z,11.93
2019-04-03T13:08:43.867Z,10.47
2019-04-03T13:10:21.276Z,10.30
2019-04-03T13:11:57.491Z,10.13
2019-04-03T13:13:33.791Z,10.33
2019-04-03T13:15:12.518Z,13.97
2019-04-03T13:16:48.636Z,18.20
2019-04-03T13:18:25.299Z,14.27
2019-04-03T13:20:05.612Z,9.47
2019-04-03T13:21:40.346Z,11.60
2019-04-03T13:23:17.056Z,10.13
2019-04-03T13:24:53.291Z,9.63
2019-04-03T13:26:29.655Z,10.77
2019-04-03T13:28:06.203Z,9.03
2019-04-03T13:29:43.782Z,12.07
2019-04-03T13:31:20.173Z,13.67
2019-04-03T13:32:59.756Z,10.70
2019-04-03T13:34:34.457Z,6.50
2019-04-03T13:36:10.925Z,9.70
2019-04-03T13:37:47.450Z,8.30
2019-04-03T13:39:24.132Z,10.30
2019-04-03T13:41:00.884Z,8.77
2019-04-03T13:42:37.537Z,12.50
2019-04-03T13:44:13.633Z,8.87
2019-04-03T13:45:50.092Z,9.87
2019-04-03T13:47:26.506Z,10.47
2019-04-03T13:49:02.850Z,9.97
2019-04-03T13:50:39.155Z,7.80
2019-04-03T13:52:15.428Z,10.67
2019-04-03T13:53:53.390Z,12.07
2019-04-03T13:55:33.813Z,6.70
2019-04-03T13:57:08.057Z,10.30
2019-04-03T13:58:44.887Z,9.80
2019-04-03T14:00:23.467Z,11.67
2019-04-03T14:01:59.942Z,10.07
2019-04-03T14:03:36.407Z,10.23
2019-04-03T14:05:14.038Z,10.80
2019-04-03T14:06:50.737Z,10.33
2019-04-03T14:08:26.948Z,10.07
2019-04-03T14:10:03.556Z,11.33
2019-04-03T14:11:40.235Z,11.80
2019-04-03T14:13:16.835Z,8.37
2019-04-03T14:14:53.104Z,9.70
2019-04-03T14:16:30.090Z,11.17
2019-04-03T14:18:07.793Z,12.93
2019-04-03T14:19:48.448Z,11.37
2019-04-03T14:21:22.552Z,12.53
2019-04-03T14:22:58.700Z,12.77
2019-04-03T14:24:41.848Z,12.93
2019-04-03T14:26:14.578Z,10.60
2019-04-03T14:27:51.173Z,8.73
2019-04-03T14:29:29.480Z,18.70
2019-04-03T14:31:05.878Z,12.20
2019-04-03T14:32:45.002Z,9.73
2019-04-03T14:34:20.233Z,10.50
2019-04-03T14:35:56.750Z,8.57
2019-04-03T14:37:33.198Z,12.30
2019-04-03T14:39:09.746Z,9.47
2019-04-03T14:40:46.110Z,8.00
2019-04-03T14:42:25.654Z,11.67
2019-04-03T14:44:02.011Z,10.03
2019-04-03T14:45:39.610Z,9.80
2019-04-03T14:47:15.979Z,10.77
2019-04-03T14:48:52.174Z,7.50
2019-04-03T14:50:28.407Z,11.47
2019-04-03T14:52:06.344Z,9.80
2019-04-03T14:53:42.565Z,10.37
2019-04-03T14:55:21.278Z,10.60
2019-04-03T14:56:58.167Z,12.87
2019-04-03T14:58:34.338Z,11.77
2019-04-03T15:00:26.080Z,9.13
2019-04-03T15:01:53.084Z,10.63
2019-04-03T15:03:29.437Z,9.00
2019-04-03T15:05:08.578Z,13.23
2019-04-03T15:06:46.390Z,10.53
2019-04-03T15:08:23.923Z,13.30
2019-04-03T15:10:02.696Z,10.97
2019-04-03T15:11:39.625Z,13.27
2019-04-03T15:13:15.771Z,9.77
2019-04-03T15:14:54.465Z,13.43
2019-04-03T15:16:32.217Z,12.33
2019-04-03T15:18:10.154Z,13.57
2019-04-03T15:19:46.651Z,14.07
2019-04-03T15:21:24.387Z,12.70
2019-04-03T15:23:03.904Z,9.70
2019-04-03T15:24:38.620Z,13.07
2019-04-03T15:26:14.788Z,16.30
2019-04-03T15:27:51.043Z,15.40
2019-04-03T15:29:27.353Z,11.40
2019-04-03T15:31:04.692Z,13.70
2019-04-03T15:32:40.967Z,14.00
2019-04-03T15:34:17.232Z,16.87
2019-04-03T15:35:53.617Z,16.37
2019-04-03T15:37:29.746Z,12.90
2019-04-03T15:39:10.576Z,14.47
2019-04-03T15:40:47.120Z,15.20
2019-04-03T15:42:23.417Z,14.40
2019-04-03T15:44:00.466Z,11.00
2019-04-03T15:45:36.970Z,12.20
2019-04-03T15:47:18.798Z,15.33
2019-04-03T15:48:53.593Z,14.17
2019-04-03T15:50:33.301Z,13.90
2019-04-03T15:52:11.060Z,13.43
2019-04-03T15:53:46.949Z,11.27
2019-04-03T15:55:25.415Z,13.13
2019-04-03T15:57:02.108Z,9.00
2019-04-03T15:58:38.543Z,12.67
2019-04-03T16:00:17.909Z,15.30
2019-04-03T16:01:54.892Z,15.03
2019-04-03T16:03:31.625Z,11.90
2019-04-03T16:05:08.534Z,11.57
2019-04-03T16:06:45.055Z,12.97
2019-04-03T16:08:21.621Z,15.80
2019-04-03T16:09:57.945Z,12.97
2019-04-03T16:11:34.253Z,16.20
2019-04-03T16:13:12.089Z,16.30
2019-04-03T16:14:50.800Z,13.17
2019-04-03T16:16:28.432Z,12.50
2019-04-03T16:18:07.112Z,16.20
2019-04-03T16:19:44.534Z,17.07
2019-04-03T16:21:40.501Z,11.90
2019-04-03T16:23:17.258Z,11.73
2019-04-03T16:24:54.689Z,15.80
2019-04-03T16:26:31.497Z,16.23
2019-04-03T16:28:07.793Z,15.57
2019-04-03T16:29:43.957Z,12.63
2019-04-03T16:31:21.549Z,19.37
2019-04-03T16:33:02.347Z,8.80
2019-04-03T16:34:35.960Z,17.03
2019-04-03T16:36:12.304Z,20.10
2019-04-03T16:37:50.420Z,23.20
2019-04-03T16:39:26.283Z,12.40
2019-04-03T16:41:03.528Z,19.70
2019-04-03T16:42:39.972Z,12.80
2019-04-03T16:44:16.543Z,12.10
2019-04-03T16:45:52.828Z,9.73
2019-04-03T16:47:30.120Z,11.93
2019-04-03T16:49:08.869Z,11.10
2019-04-03T16:50:45.253Z,14.03
2019-04-03T16:52:22.136Z,19.40
2019-04-03T16:54:00.155Z,26.33
2019-04-03T16:55:36.362Z,16.23
2019-04-03T16:57:12.758Z,17.03
2019-04-03T16:58:48.547Z,15.60
2019-04-03T17:00:25.087Z,17.60
2019-04-03T17:02:01.882Z,21.63
2019-04-03T17:03:38.713Z,12.23
2019-04-03T17:05:15.629Z,16.10
2019-04-03T17:06:52.208Z,15.90
2019-04-03T17:08:28.930Z,14.53
2019-04-03T17:10:09.473Z,13.97
2019-04-03T17:11:48.653Z,16.63
2019-04-03T17:13:23.828Z,16.23
2019-04-03T17:15:01.863Z,19.93
2019-04-03T17:16:38.371Z,13.13
2019-04-03T17:18:16.356Z,17.37
2019-04-03T17:19:52.715Z,15.37
2019-04-03T17:21:36.170Z,11.07
2019-04-03T17:23:06.984Z,13.30
2019-04-03T17:24:48.059Z,19.37
2019-04-03T17:26:22.631Z,9.27
2019-04-03T17:27:59.781Z,13.03
2019-04-03T17:29:36.661Z,17.80
2019-04-03T17:31:13.015Z,15.73
2019-04-03T17:32:49.432Z,17.93
2019-04-03T17:34:25.771Z,25.30
2019-04-03T17:36:02.037Z,27.50
2019-04-03T17:37:38.477Z,24.80
2019-04-03T17:39:14.892Z,24.13
2019-04-03T17:40:52.184Z,32.20
2019-04-03T17:42:28.531Z,17.03
2019-04-03T17:44:05.197Z,19.70
2019-04-03T17:45:41.699Z,20.50
2019-04-03T17:47:19.421Z,14.60
2019-04-03T17:48:56.017Z,19.73
2019-04-03T17:50:32.266Z,18.23
2019-04-03T17:52:08.552Z,20.30
2019-04-03T17:53:44.732Z,14.20
2019-04-03T17:55:20.970Z,24.87
2019-04-03T17:56:57.335Z,13.17
2019-04-03T17:58:33.592Z,25.40
2019-04-03T18:00:15.551Z,19.33
2019-04-03T18:01:52.471Z,21.13
2019-04-03T18:03:29.178Z,16.17
2019-04-03T18:05:07.701Z,19.10
2019-04-03T18:06:46.481Z,13.00
2019-04-03T18:08:23.093Z,14.20
2019-04-03T18:09:59.371Z,15.63
2019-04-03T18:11:42.617Z,19.40
2019-04-03T18:13:18.085Z,17.40
2019-04-03T18:14:55.717Z,16.53
2019-04-03T18:16:32.456Z,15.83
2019-04-03T18:18:08.862Z,18.50
2019-04-03T18:19:45.072Z,22.87
2019-04-03T18:21:23.129Z,17.30
2019-04-03T18:22:59.264Z,20.37
2019-04-03T18:24:35.598Z,12.73
2019-04-03T18:26:11.865Z,18.67
2019-04-03T18:27:48.273Z,17.83
2019-04-03T18:29:24.621Z,19.47
2019-04-03T18:31:01.159Z,19.53
2019-04-03T18:32:37.410Z,17.00
2019-04-03T18:34:13.649Z,12.30
2019-04-03T18:35:49.860Z,20.07
2019-04-03T18:37:26.157Z,18.53
2019-04-03T18:39:04.336Z,10.97
2019-04-03T18:40:40.614Z,16.87
2019-04-03T18:42:18.623Z,16.83
2019-04-03T18:43:55.124Z,14.53
2019-04-03T18:45:31.505Z,21.90
2019-04-03T18:47:07.924Z,23.87
2019-04-03T18:48:53.159Z,14.13
2019-04-03T18:50:22.706Z,16.17
2019-04-03T18:52:00.183Z,14.67
2019-04-03T18:53:36.620Z,15.97
2019-04-03T18:55:14.648Z,13.87
2019-04-03T18:56:50.893Z,14.87
2019-04-03T18:58:27.182Z,15.87
2019-04-03T19:00:04.635Z,16.60
2019-04-03T19:01:40.916Z,15.63
2019-04-03T19:03:17.178Z,16.93
2019-04-03T19:05:01.870Z,20.27
2019-04-03T19:06:32.490Z,13.80
2019-04-03T19:08:13.281Z,17.37
2019-04-03T19:09:47.120Z,11.97
2019-04-03T19:11:23.825Z,14.47
2019-04-03T19:13:01.246Z,13.70
2019-04-03T19:14:37.573Z,12.97
2019-04-03T19:16:19.547Z,16.57
2019-04-03T19:17:59.881Z,15.00
2019-04-03T19:19:29.740Z,14.30
2019-04-03T19:21:08.990Z,14.07
2019-04-03T19:22:44.103Z,13.67
2019-04-03T19:24:20.522Z,18.20
2019-04-03T19:25:58.060Z,16.40
2019-04-03T19:27:34.666Z,13.17
2019-04-03T19:29:10.991Z,13.37
2019-04-03T19:30:47.497Z,13.60
2019-04-03T19:32:23.726Z,16.90
2019-04-03T19:33:59.871Z,12.33
2019-04-03T19:35:36.664Z,17.60
2019-04-03T19:37:13.170Z,16.00
2019-04-03T19:38:49.418Z,14.70
2019-04-03T19:40:25.773Z,14.33
2019-04-03T19:42:02.009Z,16.07
2019-04-03T19:43:38.258Z,14.13
2019-04-03T19:45:15.890Z,13.57
2019-04-03T19:46:53.906Z,14.60
2019-04-03T19:48:37.905Z,15.87
2019-04-03T19:50:14.706Z,14.93
2019-04-03T19:51:50.781Z,11.60
2019-04-03T19:53:27.361Z,13.40
2019-04-03T19:55:04.435Z,13.07
2019-04-03T19:56:41.878Z,11.03
2019-04-03T19:58:18.271Z,16.53
2019-04-03T19:59:55.977Z,15.50
2019-04-03T20:01:32.209Z,15.10
2019-04-03T20:03:08.658Z,10.93
2019-04-03T20:04:45.888Z,14.40
2019-04-03T20:06:23.267Z,14.30
2019-04-03T20:07:59.589Z,10.20
2019-04-03T20:09:35.796Z,15.10
2019-04-03T20:11:12.040Z,10.40
2019-04-03T20:12:48.558Z,9.60
2019-04-03T20:14:25.817Z,16.60
2019-04-03T20:16:01.938Z,18.80
2019-04-03T20:17:38.357Z,13.03
2019-04-03T20:19:14.636Z,14.90
2019-04-03T20:20:50.944Z,13.53
2019-04-03T20:22:27.272Z,15.07
2019-04-03T20:24:03.596Z,9.77
2019-04-03T20:25:40.005Z,12.77
2019-04-03T20:27:17.442Z,9.70
2019-04-03T20:28:56.781Z,13.90
2019-04-03T20:30:32.911Z,15.37
2019-04-03T20:32:09.773Z,13.83
2019-04-03T20:33:46.270Z,16.27
2019-04-03T20:35:22.532Z,15.67
2019-04-03T20:36:58.691Z,14.13
2019-04-03T20:38:35.072Z,14.40
2019-04-03T20:40:12.771Z,16.30
2019-04-03T20:41:48.995Z,13.53
2019-04-03T20:43:25.214Z,15.03
2019-04-03T20:45:01.622Z,14.67
2019-04-03T20:46:37.960Z,16.93
2019-04-03T20:48:14.207Z,15.10
2019-04-03T20:49:50.605Z,15.27
2019-04-03T20:51:26.831Z,14.73
2019-04-03T20:53:03.179Z,13.87
2019-04-03T20:54:39.596Z,12.53
2019-04-03T20:56:15.939Z,13.80
2019-04-03T20:57:55.881Z,15.23
2019-04-03T20:59:30.315Z,15.30
2019-04-03T21:01:07.288Z,14.93
2019-04-03T21:02:43.632Z,14.33
2019-04-03T21:04:19.945Z,13.83
2019-04-03T21:05:56.354Z,15.17